Time;durP1;ratioP1;P1;durP2;ratioP2;P2;SDS_P1;SDS_P2;PMS_P1;PMS_P2;Temp;Humidity;BMP_temperature;BMP_pressure;BME280_temperature;BME280_humidity;BME280_pressure;Samples;Min_cycle;Max_cycle;Signal;HPM_P1;HPM_P2
2023/08/03 00:01:08;;;;;;;2.67;0.80;;;17.60;99.90;;;;;;5013888;28;20054;-80
2023/08/03 00:03:48;;;;;;;4.65;0.90;;;17.60;99.90;;;;;;5014088;28;20081;-80
2023/08/03 00:06:13;;;;;;;6.05;1.10;;;17.60;99.90;;;;;;5014295;28;20373;-80
2023/08/03 00:08:42;;;;;;;2.63;0.70;;;17.60;99.90;;;;;;5013677;28;20124;-80
2023/08/03 00:11:07;;;;;;;3.63;0.93;;;17.60;99.90;;;;;;5014265;28;20438;-80
2023/08/03 00:13:33;;;;;;;6.60;1.17;;;17.60;99.90;;;;;;5014022;28;20125;-80
2023/08/03 00:15:59;;;;;;;3.00;0.90;;;17.60;99.90;;;;;;5014220;28;20049;-80
2023/08/03 00:18:28;;;;;;;3.00;0.80;;;17.50;99.90;;;;;;5013884;28;20049;-80
2023/08/03 00:20:55;;;;;;;5.25;0.95;;;17.60;99.90;;;;;;5013929;28;20038;-80
2023/08/03 00:23:21;;;;;;;3.53;1.25;;;17.60;99.90;;;;;;5013166;28;20109;-80
2023/08/03 00:25:46;;;;;;;2.60;0.80;;;17.60;99.90;;;;;;5012465;28;20054;-80
2023/08/03 00:28:12;;;;;;;2.80;0.80;;;17.60;99.90;;;;;;5014044;28;20503;-79
2023/08/03 00:30:40;;;;;;;4.45;1.00;;;17.50;99.90;;;;;;5013805;28;20116;-80
2023/08/03 00:33:09;;;;;;;4.95;1.00;;;17.60;99.90;;;;;;5013809;28;20436;-80
2023/08/03 00:35:34;;;;;;;2.83;0.90;;;17.60;99.90;;;;;;5013934;28;20041;-80
2023/08/03 00:38:00;;;;;;;4.25;0.93;;;17.50;99.90;;;;;;5013912;28;20454;-80
2023/08/03 00:40:25;;;;;;;5.18;0.90;;;17.60;99.90;;;;;;5013441;28;20030;-80
2023/08/03 00:42:51;;;;;;;4.57;0.82;;;17.60;99.90;;;;;;5013145;28;20411;-80
2023/08/03 00:45:17;;;;;;;5.55;1.05;;;17.60;99.90;;;;;;5013631;28;20045;-80
2023/08/03 00:47:42;;;;;;;3.45;1.00;;;17.60;99.90;;;;;;5013628;28;20052;-80
2023/08/03 00:50:08;;;;;;;4.78;0.95;;;17.60;99.90;;;;;;5013396;28;20046;-80
2023/08/03 00:52:35;;;;;;;3.72;0.70;;;17.60;99.90;;;;;;5013173;28;20136;-80
2023/08/03 00:55:01;;;;;;;3.13;0.80;;;17.50;99.90;;;;;;5013732;28;20049;-80
2023/08/03 00:57:28;;;;;;;3.45;0.80;;;17.50;99.90;;;;;;5013748;28;20053;-80
2023/08/03 00:59:55;;;;;;;2.92;0.90;;;17.50;99.90;;;;;;5013349;28;20487;-79
2023/08/03 01:02:23;;;;;;;4.25;0.80;;;17.50;99.90;;;;;;5013404;28;20442;-80
2023/08/03 01:04:49;;;;;;;3.50;0.88;;;17.50;99.90;;;;;;5012986;28;20147;-80
2023/08/03 01:07:14;;;;;;;4.90;0.98;;;17.50;99.90;;;;;;5013084;28;20574;-80
2023/08/03 01:09:40;;;;;;;5.80;0.75;;;17.50;99.90;;;;;;5013093;28;20395;-80
2023/08/03 01:12:09;;;;;;;4.68;0.82;;;17.50;99.90;;;;;;5013327;28;20046;-80
2023/08/03 01:14:35;;;;;;;2.90;0.85;;;17.50;99.90;;;;;;5017605;28;20414;-80
2023/08/03 01:17:01;;;;;;;1.58;0.40;;;17.50;99.90;;;;;;5017473;28;20496;-80
2023/08/03 01:19:27;;;;;;;2.15;0.60;;;17.50;99.90;;;;;;5017037;28;20057;-80
2023/08/03 01:21:56;;;;;;;1.35;0.50;;;17.40;99.90;;;;;;5017373;28;20104;-80
2023/08/03 01:24:24;;;;;;;2.78;0.65;;;17.40;99.90;;;;;;5017068;28;20100;-80
2023/08/03 01:26:50;;;;;;;2.40;0.65;;;17.40;99.90;;;;;;5017262;28;20484;-80
2023/08/03 01:29:16;;;;;;;2.95;0.75;;;17.40;99.90;;;;;;5017112;28;20038;-80
2023/08/03 01:31:42;;;;;;;3.45;0.60;;;17.40;99.90;;;;;;5016993;28;20125;-80
2023/08/03 01:34:08;;;;;;;2.38;0.52;;;17.40;99.90;;;;;;5017072;28;20081;-80
2023/08/03 01:36:34;;;;;;;2.13;0.55;;;17.40;99.90;;;;;;5016625;28;20053;-80
2023/08/03 01:39:07;;;;;;;1.98;0.50;;;17.40;99.90;;;;;;5016995;28;20041;-80
2023/08/03 01:41:38;;;;;;;1.48;0.40;;;17.40;99.90;;;;;;5016806;28;20077;-80
2023/08/03 01:44:26;;;;;;;3.33;0.60;;;17.40;99.90;;;;;;5016880;28;20081;-80
2023/08/03 01:46:54;;;;;;;4.07;0.82;;;17.40;99.90;;;;;;5015397;28;20495;-80
2023/08/03 01:49:21;;;;;;;3.65;0.63;;;17.40;99.90;;;;;;5016205;28;20496;-80
2023/08/03 01:51:47;;;;;;;2.38;0.52;;;17.40;99.90;;;;;;5016512;28;20054;-80
2023/08/03 01:54:13;;;;;;;3.75;0.90;;;17.40;99.90;;;;;;5016359;28;20042;-80
2023/08/03 01:56:38;;;;;;;2.33;0.70;;;17.40;99.90;;;;;;5016653;28;20117;-80
2023/08/03 01:59:05;;;;;;;2.85;0.60;;;17.40;99.90;;;;;;5016276;28;20037;-80
2023/08/03 02:01:30;;;;;;;5.22;0.73;;;17.40;99.90;;;;;;5016220;28;20056;-80
2023/08/03 02:03:56;;;;;;;3.35;0.70;;;17.40;99.90;;;;;;5016373;28;20042;-80
2023/08/03 02:06:22;;;;;;;2.53;0.70;;;17.40;99.90;;;;;;5015565;28;20034;-80
2023/08/03 02:08:47;;;;;;;2.25;0.70;;;17.40;99.90;;;;;;5016277;28;20127;-79
2023/08/03 02:11:14;;;;;;;3.20;0.70;;;17.40;99.90;;;;;;5006032;28;20125;-80
2023/08/03 02:13:39;;;;;;;3.80;0.63;;;17.40;99.90;;;;;;5016189;28;20088;-80
2023/08/03 02:16:10;;;;;;;3.17;0.70;;;17.40;99.90;;;;;;5015513;28;20427;-80
2023/08/03 02:18:37;;;;;;;3.40;0.77;;;17.40;99.90;;;;;;5016159;28;20104;-80
2023/08/03 02:21:03;;;;;;;5.70;0.60;;;17.40;99.90;;;;;;5014796;28;20079;-80
2023/08/03 02:23:29;;;;;;;2.03;0.60;;;17.40;99.90;;;;;;5015588;28;20064;-80
2023/08/03 02:25:55;;;;;;;2.35;0.70;;;17.40;99.90;;;;;;5015446;28;20120;-80
2023/08/03 02:28:20;;;;;;;2.50;0.60;;;17.40;99.90;;;;;;5016031;28;20045;-80
2023/08/03 02:30:46;;;;;;;3.05;0.80;;;17.40;99.90;;;;;;5013825;28;20072;-79
2023/08/03 02:33:12;;;;;;;1.95;0.55;;;17.40;99.90;;;;;;5014450;28;20049;-80
2023/08/03 02:35:39;;;;;;;1.95;0.70;;;17.40;99.90;;;;;;5015416;28;20102;-80
2023/08/03 02:38:05;;;;;;;2.60;0.75;;;17.30;99.90;;;;;;5015956;28;20046;-80
2023/08/03 02:40:31;;;;;;;2.10;0.50;;;17.40;99.90;;;;;;5014940;28;20411;-80
2023/08/03 02:42:57;;;;;;;2.65;0.75;;;17.40;99.90;;;;;;5014092;28;20045;-80
2023/08/03 02:45:23;;;;;;;2.17;0.70;;;17.30;99.90;;;;;;5014877;28;20129;-80
2023/08/03 02:47:48;;;;;;;4.05;0.80;;;17.40;99.90;;;;;;5016118;28;20038;-80
2023/08/03 02:50:14;;;;;;;3.85;1.00;;;17.40;99.90;;;;;;5015578;28;20511;-80
2023/08/03 02:52:40;;;;;;;3.22;0.85;;;17.30;99.90;;;;;;5016034;28;20042;-80
2023/08/03 02:55:07;;;;;;;3.78;1.02;;;17.30;99.90;;;;;;5015464;28;20037;-80
2023/08/03 02:57:33;;;;;;;5.32;0.98;;;17.30;99.90;;;;;;5015424;28;20472;-80
2023/08/03 02:59:59;;;;;;;3.10;1.05;;;17.30;99.90;;;;;;5015034;28;20076;-80
2023/08/03 03:02:27;;;;;;;3.03;1.08;;;17.40;99.90;;;;;;5015393;28;20042;-80
2023/08/03 03:04:53;;;;;;;2.05;0.70;;;17.40;99.90;;;;;;5014845;28;20042;-79
2023/08/03 03:07:18;;;;;;;3.08;0.90;;;17.30;99.90;;;;;;5014250;28;20141;-80
2023/08/03 03:09:44;;;;;;;2.65;1.02;;;17.40;99.90;;;;;;5013954;28;20049;-80
2023/08/03 03:12:09;;;;;;;5.93;1.60;;;17.40;99.90;;;;;;5014745;28;20507;-80
2023/08/03 03:14:35;;;;;;;3.30;1.08;;;17.30;99.90;;;;;;5015242;28;20057;-80
2023/08/03 03:17:01;;;;;;;3.65;1.42;;;17.40;99.90;;;;;;5014893;28;20136;-80
2023/08/03 03:19:27;;;;;;;3.67;1.60;;;17.30;99.90;;;;;;5014797;28;20042;-80
2023/08/03 03:21:53;;;;;;;6.40;2.10;;;17.30;99.90;;;;;;5013727;28;20053;-80
2023/08/03 03:24:18;;;;;;;7.53;1.90;;;17.30;99.90;;;;;;5015186;28;20479;-80
2023/08/03 03:26:44;;;;;;;5.30;1.73;;;17.40;99.90;;;;;;5014631;28;20088;-80
2023/08/03 03:29:10;;;;;;;9.55;2.90;;;17.30;99.90;;;;;;5014959;28;20129;-80
2023/08/03 03:31:35;;;;;;;3.97;1.98;;;17.30;99.90;;;;;;5013156;28;20084;-80
2023/08/03 03:34:01;;;;;;;4.45;2.13;;;17.30;99.90;;;;;;5013839;28;20049;-80
2023/08/03 03:36:26;;;;;;;9.23;2.58;;;17.40;99.90;;;;;;5013315;28;20048;-80
2023/08/03 03:38:52;;;;;;;7.28;2.13;;;17.30;99.90;;;;;;5013579;28;20064;-80
2023/08/03 03:41:18;;;;;;;7.55;2.13;;;17.30;99.90;;;;;;5013563;28;20054;-80
2023/08/03 03:43:43;;;;;;;6.22;1.88;;;17.30;99.90;;;;;;5014246;28;20488;-80
2023/08/03 03:46:09;;;;;;;5.20;2.20;;;17.30;99.90;;;;;;5014210;28;20046;-80
2023/08/03 03:48:34;;;;;;;4.70;1.98;;;17.30;99.90;;;;;;5014500;28;20049;-80
2023/08/03 03:51:00;;;;;;;8.70;2.10;;;17.30;99.90;;;;;;5014343;28;20045;-80
2023/08/03 03:53:26;;;;;;;3.65;1.35;;;17.30;99.90;;;;;;5014313;28;20082;-80
2023/08/03 03:55:51;;;;;;;6.55;1.63;;;17.30;99.90;;;;;;5014312;28;20042;-80
2023/08/03 03:58:17;;;;;;;6.75;2.25;;;17.30;99.90;;;;;;5014060;28;20049;-80
2023/08/03 04:00:43;;;;;;;5.20;1.90;;;17.20;99.90;;;;;;5014086;28;20049;-80
2023/08/03 04:03:09;;;;;;;7.47;2.15;;;17.30;99.90;;;;;;5014352;28;20046;-80
2023/08/03 04:05:35;;;;;;;3.75;1.25;;;17.20;99.90;;;;;;5014463;28;20100;-80
2023/08/03 04:08:01;;;;;;;6.93;2.20;;;17.20;99.90;;;;;;5013493;28;20045;-80
2023/08/03 04:10:28;;;;;;;7.18;1.70;;;17.20;99.90;;;;;;5014231;28;20088;-80
2023/08/03 04:12:53;;;;;;;4.97;2.20;;;17.20;99.90;;;;;;5014173;28;20093;-80
2023/08/03 04:15:19;;;;;;;9.13;2.13;;;17.20;99.90;;;;;;5012877;28;20045;-79
2023/08/03 04:17:45;;;;;;;7.78;2.10;;;17.20;99.90;;;;;;5012686;28;20050;-83
2023/08/03 04:20:12;;;;;;;6.63;1.58;;;17.20;99.90;;;;;;5014141;28;20096;-80
2023/08/03 04:22:38;;;;;;;7.72;1.90;;;17.20;99.90;;;;;;5013089;28;20045;-80
2023/08/03 04:25:04;;;;;;;7.75;2.22;;;17.10;99.90;;;;;;5027021;28;20068;-80
2023/08/03 04:27:30;;;;;;;7.68;1.73;;;17.10;99.90;;;;;;5021135;28;20042;-80
2023/08/03 04:29:58;;;;;;;7.70;1.90;;;17.20;99.90;;;;;;5033786;28;20055;-80
2023/08/03 04:32:24;;;;;;;11.13;2.40;;;17.10;99.90;;;;;;5014262;28;20113;-80
2023/08/03 04:34:52;;;;;;;8.48;2.10;;;17.10;99.90;;;;;;5014006;28;20045;-80
2023/08/03 04:37:18;;;;;;;7.63;1.80;;;17.10;99.90;;;;;;5013645;28;20391;-80
2023/08/03 04:39:44;;;;;;;6.32;1.80;;;17.10;99.90;;;;;;5013138;28;20050;-80
2023/08/03 04:42:09;;;;;;;10.80;2.00;;;17.10;99.90;;;;;;5015746;28;20054;-80
2023/08/03 04:44:38;;;;;;;11.82;2.30;;;17.20;99.90;;;;;;5013548;28;20546;-80
2023/08/03 04:47:04;;;;;;;10.50;1.85;;;17.20;99.90;;;;;;5012565;28;20042;-80
2023/08/03 04:49:29;;;;;;;10.93;2.00;;;17.10;99.90;;;;;;5013544;28;20041;-80
2023/08/03 04:51:55;;;;;;;11.90;2.00;;;17.20;99.90;;;;;;5013203;28;20053;-80
2023/08/03 04:54:21;;;;;;;9.20;1.88;;;17.20;99.90;;;;;;5013353;28;20042;-80
2023/08/03 04:56:46;;;;;;;8.90;1.83;;;17.20;99.90;;;;;;5012664;28;20113;-80
2023/08/03 04:59:12;;;;;;;11.75;2.33;;;17.20;99.90;;;;;;5013241;28;20088;-80
2023/08/03 05:01:38;;;;;;;10.95;1.95;;;17.20;99.90;;;;;;5011224;28;20053;-80
2023/08/03 05:04:04;;;;;;;8.90;2.05;;;17.20;99.90;;;;;;5012088;28;20404;-80
2023/08/03 05:06:29;;;;;;;11.70;2.03;;;17.20;99.90;;;;;;5013068;28;20049;-80
2023/08/03 05:08:55;;;;;;;11.10;2.33;;;17.20;99.90;;;;;;5013353;28;20124;-80
2023/08/03 05:11:21;;;;;;;12.13;2.05;;;17.20;99.90;;;;;;5013154;28;20448;-80
2023/08/03 05:13:47;;;;;;;9.68;2.20;;;17.20;99.90;;;;;;5012171;28;20050;-80
2023/08/03 05:16:12;;;;;;;14.02;2.33;;;17.20;99.90;;;;;;5012498;28;20038;-80
2023/08/03 05:18:38;;;;;;;10.73;2.22;;;17.20;99.90;;;;;;5013369;28;20041;-80
2023/08/03 05:21:03;;;;;;;14.43;2.40;;;17.20;99.90;;;;;;5013214;28;20041;-80
2023/08/03 05:23:29;;;;;;;9.43;1.80;;;17.20;99.90;;;;;;5012806;28;20529;-80
2023/08/03 05:25:56;;;;;;;13.25;2.33;;;17.20;99.90;;;;;;5012790;28;20090;-80
2023/08/03 05:28:22;;;;;;;10.38;1.83;;;17.20;99.90;;;;;;5012898;28;20056;-80
2023/08/03 05:30:48;;;;;;;10.75;2.17;;;17.20;99.90;;;;;;5013131;28;20038;-80
2023/08/03 05:33:14;;;;;;;14.85;2.47;;;17.20;99.90;;;;;;5012727;28;20479;-80
2023/08/03 05:35:40;;;;;;;8.60;1.90;;;17.30;99.90;;;;;;5013104;28;20117;-80
2023/08/03 05:38:06;;;;;;;10.55;1.85;;;17.30;99.90;;;;;;5013010;28;20521;-80
2023/08/03 05:40:32;;;;;;;9.88;1.95;;;17.30;99.90;;;;;;5012375;28;20052;-79
2023/08/03 05:42:57;;;;;;;15.55;2.30;;;17.30;99.90;;;;;;5012804;28;20119;-80
2023/08/03 05:45:40;;;;;;;11.68;1.95;;;17.30;99.90;;;;;;5011868;28;20049;-80
2023/08/03 05:48:18;;;;;;;11.40;2.30;;;17.30;99.90;;;;;;5013476;28;20084;-79
2023/08/03 05:50:51;;;;;;;11.52;2.42;;;17.40;99.90;;;;;;5010811;28;20042;-80
2023/08/03 05:53:18;;;;;;;9.82;2.00;;;17.40;99.90;;;;;;5013062;28;20053;-80
2023/08/03 05:55:45;;;;;;;7.63;1.92;;;17.40;99.90;;;;;;5011658;28;20100;-80
2023/08/03 05:58:13;;;;;;;10.98;2.30;;;17.40;99.90;;;;;;5013332;28;20049;-80
2023/08/03 06:00:41;;;;;;;10.30;2.33;;;17.40;99.90;;;;;;5016140;28;20041;-80
2023/08/03 06:03:14;;;;;;;12.82;2.60;;;17.40;99.90;;;;;;5016149;28;20077;-80
2023/08/03 06:05:43;;;;;;;12.95;2.45;;;17.40;99.90;;;;;;5016342;28;20092;-80
2023/08/03 06:08:18;;;;;;;12.77;2.50;;;17.40;99.90;;;;;;5016387;28;20045;-81
2023/08/03 06:10:46;;;;;;;8.80;1.98;;;17.50;99.90;;;;;;5015947;28;20132;-79
2023/08/03 06:13:15;;;;;;;12.75;2.13;;;17.50;99.90;;;;;;5015687;28;20034;-81
2023/08/03 06:15:42;;;;;;;12.30;2.28;;;17.50;99.90;;;;;;5015153;28;20049;-82
2023/08/03 06:18:14;;;;;;;10.45;2.20;;;17.50;99.90;;;;;;5005835;28;20053;-81
2023/08/03 06:20:43;;;;;;;9.50;1.85;;;17.50;99.90;;;;;;5014979;28;20046;-81
2023/08/03 06:23:18;;;;;;;14.85;2.70;;;17.60;99.90;;;;;;5016147;28;20077;-80
2023/08/03 06:25:48;;;;;;;10.38;2.42;;;17.60;99.90;;;;;;5016086;28;20049;-80
2023/08/03 06:28:16;;;;;;;9.93;2.13;;;17.60;99.90;;;;;;5015000;28;20146;-80
2023/08/03 06:30:46;;;;;;;10.60;2.00;;;17.60;99.90;;;;;;5015964;28;20046;-80
2023/08/03 06:33:14;;;;;;;10.70;2.33;;;17.70;99.90;;;;;;5015651;28;20065;-80
2023/08/03 06:35:45;;;;;;;9.95;2.08;;;17.70;99.90;;;;;;5015393;28;20042;-81
2023/08/03 06:38:14;;;;;;;11.98;2.65;;;17.70;99.90;;;;;;5015796;28;20046;-81
2023/08/03 06:40:41;;;;;;;9.13;2.25;;;17.70;99.90;;;;;;5014932;28;20057;-81
2023/08/03 06:43:08;;;;;;;11.57;2.40;;;17.70;99.90;;;;;;5015581;28;20050;-80
2023/08/03 06:45:35;;;;;;;9.68;2.28;;;17.70;99.90;;;;;;5016029;28;20559;-81
2023/08/03 06:48:01;;;;;;;13.00;2.67;;;17.70;99.90;;;;;;5015765;28;20042;-80
2023/08/03 06:50:32;;;;;;;7.47;1.70;;;17.70;99.90;;;;;;5015341;28;20088;-80
2023/08/03 06:52:59;;;;;;;8.75;2.47;;;17.70;99.90;;;;;;5015709;28;20049;-80
2023/08/03 06:55:25;;;;;;;11.13;2.70;;;17.80;99.90;;;;;;5013866;28;20042;-80
2023/08/03 06:57:51;;;;;;;10.45;2.35;;;17.80;99.90;;;;;;5014979;28;20041;-80
2023/08/03 07:00:17;;;;;;;8.60;2.25;;;17.80;99.90;;;;;;5014115;28;20034;-81
2023/08/03 07:02:44;;;;;;;7.15;1.92;;;17.90;99.90;;;;;;5004092;28;20116;-81
2023/08/03 07:05:10;;;;;;;7.28;1.50;;;17.90;99.90;;;;;;5014965;28;20044;-81
2023/08/03 07:07:36;;;;;;;10.60;2.03;;;17.90;99.90;;;;;;5014428;28;20050;-81
2023/08/03 07:10:01;;;;;;;7.00;1.42;;;18.00;99.90;;;;;;5014408;28;20049;-81
2023/08/03 07:12:27;;;;;;;5.55;1.23;;;18.00;99.90;;;;;;5015400;28;20053;-81
2023/08/03 07:14:53;;;;;;;9.45;1.95;;;18.00;99.90;;;;;;5015401;28;20042;-81
2023/08/03 07:17:19;;;;;;;6.28;1.40;;;18.10;99.90;;;;;;5013323;28;20054;-80
2023/08/03 07:19:54;;;;;;;6.20;1.20;;;18.10;99.90;;;;;;5014781;28;20054;-81
2023/08/03 07:22:23;;;;;;;9.27;1.30;;;18.10;99.90;;;;;;5014581;28;20049;-81
2023/08/03 07:24:49;;;;;;;6.10;1.08;;;18.20;99.90;;;;;;5015011;28;20046;-81
2023/08/03 07:27:15;;;;;;;5.40;1.20;;;18.20;99.90;;;;;;5014675;28;20053;-81
2023/08/03 07:29:42;;;;;;;4.32;0.88;;;18.30;99.90;;;;;;5014883;28;20046;-81
2023/08/03 07:32:09;;;;;;;4.53;1.00;;;18.40;99.90;;;;;;5014776;28;20399;-81
2023/08/03 07:34:34;;;;;;;5.07;0.98;;;18.40;99.90;;;;;;5014854;28;20514;-81
2023/08/03 07:37:01;;;;;;;4.07;1.00;;;18.40;99.90;;;;;;5014368;28;20077;-81
2023/08/03 07:39:27;;;;;;;5.22;1.00;;;18.50;99.90;;;;;;5015017;28;20128;-81
2023/08/03 07:41:53;;;;;;;5.85;0.82;;;18.60;99.90;;;;;;5014834;28;20061;-81
2023/08/03 07:44:19;;;;;;;5.95;0.90;;;18.60;99.90;;;;;;5014822;28;20053;-81
2023/08/03 07:46:46;;;;;;;4.75;0.90;;;18.60;99.90;;;;;;5014985;28;20143;-81
2023/08/03 07:49:12;;;;;;;6.22;0.93;;;18.70;99.90;;;;;;5014059;28;20038;-81
2023/08/03 07:51:38;;;;;;;4.72;0.82;;;18.70;99.90;;;;;;5013030;28;20042;-81
2023/08/03 07:54:03;;;;;;;3.45;0.88;;;18.70;99.90;;;;;;4996921;28;20129;-80
2023/08/03 07:56:29;;;;;;;3.80;0.70;;;18.80;99.90;;;;;;5011898;28;20076;-79
2023/08/03 07:58:55;;;;;;;3.60;0.80;;;18.80;99.90;;;;;;5011434;28;20563;-80
2023/08/03 08:01:21;;;;;;;4.90;0.90;;;18.90;99.90;;;;;;5013201;28;20050;-81
2023/08/03 08:03:47;;;;;;;3.90;0.77;;;18.90;99.90;;;;;;5012722;28;20381;-81
2023/08/03 08:06:19;;;;;;;5.32;0.88;;;19.00;99.90;;;;;;5013530;28;20046;-80
2023/08/03 08:08:46;;;;;;;4.88;0.85;;;19.00;99.90;;;;;;5011614;28;20077;-81
2023/08/03 08:11:15;;;;;;;5.07;0.98;;;19.00;99.90;;;;;;5013019;28;20083;-80
2023/08/03 08:13:41;;;;;;;4.30;0.88;;;19.10;99.90;;;;;;5012419;28;20034;-80
2023/08/03 08:16:09;;;;;;;4.40;0.65;;;19.20;99.90;;;;;;5010738;28;20104;-81
2023/08/03 08:18:36;;;;;;;4.40;0.85;;;19.20;99.90;;;;;;5013683;28;20049;-80
2023/08/03 08:21:04;;;;;;;3.78;0.82;;;19.30;99.90;;;;;;5006929;28;20050;-80
2023/08/03 08:23:30;;;;;;;3.88;0.70;;;19.30;99.90;;;;;;5010539;28;20047;-80
2023/08/03 08:25:56;;;;;;;2.00;0.60;;;19.40;99.90;;;;;;5011744;28;20052;-80
2023/08/03 08:28:21;;;;;;;4.22;0.90;;;19.40;99.90;;;;;;5013315;28;20054;-80
2023/08/03 08:30:47;;;;;;;6.13;0.80;;;19.40;99.90;;;;;;5010016;28;20038;-80
2023/08/03 08:33:18;;;;;;;4.95;0.90;;;19.50;99.90;;;;;;5003917;28;20504;-80
2023/08/03 08:35:45;;;;;;;4.10;0.90;;;19.60;99.90;;;;;;5011511;28;20548;-80
2023/08/03 08:38:12;;;;;;;6.40;0.98;;;19.60;99.90;;;;;;5013192;28;20092;-80
2023/08/03 08:40:39;;;;;;;4.32;0.90;;;19.70;99.90;;;;;;5011006;28;20446;-80
2023/08/03 08:43:06;;;;;;;7.25;1.00;;;19.80;99.90;;;;;;5012102;28;20046;-80
2023/08/03 08:45:36;;;;;;;8.20;1.08;;;19.90;99.90;;;;;;5011828;28;20458;-79
2023/08/03 08:48:03;;;;;;;4.32;0.70;;;19.90;99.90;;;;;;5013252;28;20046;-79
2023/08/03 08:50:29;;;;;;;2.90;0.70;;;20.00;99.90;;;;;;5020386;28;20057;-80
2023/08/03 08:52:56;;;;;;;4.90;0.90;;;20.00;99.90;;;;;;5005373;28;20030;-80
2023/08/03 08:55:29;;;;;;;2.03;0.63;;;20.00;99.90;;;;;;5013469;28;20046;-80
2023/08/03 08:57:56;;;;;;;6.47;0.82;;;20.10;99.90;;;;;;5006222;28;20045;-80
2023/08/03 09:00:25;;;;;;;5.10;0.88;;;20.20;99.90;;;;;;5015246;28;20041;-79
2023/08/03 09:03:00;;;;;;;5.32;0.90;;;20.20;99.90;;;;;;5019897;28;20048;-80
2023/08/03 09:05:27;;;;;;;5.60;0.80;;;20.30;99.90;;;;;;5013292;28;20133;-80
2023/08/03 09:08:02;;;;;;;4.72;0.90;;;20.40;99.90;;;;;;5011235;28;20085;-80
2023/08/03 09:10:28;;;;;;;5.25;0.80;;;20.40;99.90;;;;;;5015955;28;20390;-80
2023/08/03 09:12:54;;;;;;;5.05;1.10;;;20.50;99.90;;;;;;5011474;28;20038;-80
2023/08/03 09:15:36;;;;;;;5.28;0.98;;;20.60;99.90;;;;;;5015173;28;20046;-80
2023/08/03 09:18:05;;;;;;;3.45;0.77;;;20.60;99.90;;;;;;5032798;28;20091;-80
2023/08/03 09:20:31;;;;;;;3.58;0.77;;;20.70;99.90;;;;;;5026809;28;20050;-80
2023/08/03 09:22:58;;;;;;;8.07;1.10;;;20.70;99.90;;;;;;5012344;28;20046;-80
2023/08/03 09:25:23;;;;;;;6.63;0.90;;;20.80;99.90;;;;;;5013418;28;20042;-79
2023/08/03 09:27:51;;;;;;;6.05;0.82;;;20.80;99.90;;;;;;5013617;28;20046;-80
2023/08/03 09:30:21;;;;;;;4.15;0.90;;;20.90;99.60;;;;;;5013443;28;20046;-80
2023/08/03 09:32:50;;;;;;;6.85;1.08;;;20.90;99.90;;;;;;4995328;28;20432;-80
2023/08/03 09:35:24;;;;;;;5.47;0.82;;;21.00;99.50;;;;;;5006798;28;20093;-79
2023/08/03 09:37:52;;;;;;;6.05;1.00;;;21.10;99.90;;;;;;5006942;28;20551;-79
2023/08/03 09:40:20;;;;;;;4.25;0.80;;;21.20;99.90;;;;;;5005492;28;20037;-79
2023/08/03 09:42:47;;;;;;;4.45;0.95;;;21.20;99.80;;;;;;5010921;28;20058;-79
2023/08/03 09:45:13;;;;;;;6.13;1.05;;;21.30;99.40;;;;;;4997285;28;20042;-79
2023/08/03 09:47:40;;;;;;;6.40;1.10;;;21.30;99.40;;;;;;5010023;28;20092;-80
2023/08/03 09:50:07;;;;;;;4.35;1.05;;;21.30;99.00;;;;;;5011449;28;20050;-79
2023/08/03 09:52:42;;;;;;;7.28;1.10;;;21.30;99.10;;;;;;4997257;28;20046;-80
2023/08/03 09:55:18;;;;;;;7.57;1.20;;;21.30;99.00;;;;;;5001579;28;20038;-80
2023/08/03 09:58:07;;;;;;;7.00;1.00;;;21.30;99.00;;;;;;5016165;28;20121;-79
2023/08/03 10:00:34;;;;;;;7.35;1.20;;;21.30;99.00;;;;;;5003079;28;20062;-79
2023/08/03 10:03:09;;;;;;;6.90;1.02;;;21.30;99.50;;;;;;5015243;28;20045;-79
2023/08/03 10:06:06;;;;;;;6.07;1.25;;;21.30;99.40;;;;;;5010564;28;20041;-80
2023/08/03 10:08:56;;;;;;;6.38;1.23;;;21.40;99.30;;;;;;5008750;28;20071;-80
2023/08/03 10:11:26;;;;;;;10.73;1.50;;;21.40;99.40;;;;;;5013044;28;20057;-80
2023/08/03 10:13:55;;;;;;;5.57;1.30;;;21.50;99.20;;;;;;5016274;28;20039;-80
2023/08/03 10:16:22;;;;;;;7.38;1.02;;;21.60;98.80;;;;;;5012725;28;20112;-81
2023/08/03 10:18:48;;;;;;;6.97;1.20;;;21.60;98.90;;;;;;5020767;28;20084;-84
2023/08/03 10:21:14;;;;;;;5.97;1.13;;;21.70;98.30;;;;;;5022428;28;20057;-79
2023/08/03 10:24:07;;;;;;;5.03;0.90;;;21.80;97.50;;;;;;5027378;28;20501;-79
2023/08/03 10:26:33;;;;;;;4.95;0.98;;;21.80;97.00;;;;;;5019721;28;20062;-79
2023/08/03 10:28:58;;;;;;;6.13;1.15;;;21.80;97.80;;;;;;4999106;28;20050;-80
2023/08/03 10:31:25;;;;;;;6.47;1.05;;;21.90;98.10;;;;;;4998907;28;20480;-79
2023/08/03 10:34:02;;;;;;;6.68;1.15;;;21.90;98.00;;;;;;5015353;28;20100;-78
2023/08/03 10:36:27;;;;;;;6.47;1.33;;;22.00;97.60;;;;;;5015100;28;20054;-79
2023/08/03 10:38:56;;;;;;;6.75;1.35;;;22.10;97.70;;;;;;5014980;28;20128;-79
2023/08/03 10:41:24;;;;;;;5.90;1.30;;;22.10;97.10;;;;;;5014792;28;20120;-80
2023/08/03 10:44:20;;;;;;;6.13;1.30;;;22.20;96.80;;;;;;5014958;28;20057;-79
2023/08/03 10:46:56;;;;;;;6.60;1.30;;;22.30;96.70;;;;;;5010243;28;20137;-80
2023/08/03 10:49:22;;;;;;;5.65;0.95;;;22.30;96.80;;;;;;5014282;28;20042;-80
2023/08/03 10:51:51;;;;;;;6.60;1.10;;;22.40;97.00;;;;;;5013214;28;20500;-80
2023/08/03 10:54:30;;;;;;;6.13;1.10;;;22.50;96.90;;;;;;5013749;28;20056;-77
2023/08/03 10:57:12;;;;;;;6.70;1.23;;;22.50;96.50;;;;;;5014836;28;20052;-78
2023/08/03 10:59:48;;;;;;;6.40;1.10;;;22.60;96.40;;;;;;5014772;28;20049;-77
2023/08/03 11:02:21;;;;;;;5.70;1.15;;;22.60;96.40;;;;;;5014670;28;20088;-78
2023/08/03 11:04:50;;;;;;;8.73;1.35;;;22.60;96.20;;;;;;5014352;28;20054;-77
2023/08/03 11:07:20;;;;;;;4.55;1.02;;;22.70;95.90;;;;;;5015447;28;20050;-78
2023/08/03 11:09:49;;;;;;;8.35;1.20;;;22.70;95.60;;;;;;5013684;28;20053;-77
2023/08/03 11:12:16;;;;;;;4.55;0.90;;;22.70;95.60;;;;;;4995192;28;20089;-77
2023/08/03 11:14:48;;;;;;;5.10;0.85;;;22.70;95.70;;;;;;5011687;28;20057;-77
2023/08/03 11:17:15;;;;;;;7.28;0.80;;;22.70;95.30;;;;;;4994485;28;20050;-77
2023/08/03 11:19:42;;;;;;;4.75;0.70;;;22.70;95.70;;;;;;5005461;28;20037;-77
2023/08/03 11:22:08;;;;;;;5.80;1.00;;;22.70;96.00;;;;;;5008780;28;20076;-77
2023/08/03 11:24:35;;;;;;;6.20;1.05;;;22.70;95.70;;;;;;5014098;28;20054;-77
2023/08/03 11:27:06;;;;;;;4.70;0.90;;;22.70;95.20;;;;;;5009029;28;20069;-77
2023/08/03 11:29:35;;;;;;;6.32;0.90;;;22.70;95.20;;;;;;5003996;28;20129;-76
2023/08/03 11:32:01;;;;;;;5.60;1.10;;;22.70;94.60;;;;;;5013987;28;20046;-78
2023/08/03 11:34:27;;;;;;;4.40;1.00;;;22.80;94.50;;;;;;5013620;28;20048;-78
2023/08/03 11:36:52;;;;;;;3.25;0.70;;;22.80;94.60;;;;;;5012894;28;20121;-78
2023/08/03 11:39:19;;;;;;;6.22;1.10;;;22.80;94.70;;;;;;5012640;28;20042;-76
2023/08/03 11:41:46;;;;;;;6.13;0.80;;;22.80;94.10;;;;;;5014173;28;20097;-76
2023/08/03 11:44:12;;;;;;;5.30;0.90;;;22.80;93.50;;;;;;5016795;28;20475;-76
2023/08/03 11:46:37;;;;;;;3.60;0.88;;;22.90;94.20;;;;;;5030122;28;20068;-76
2023/08/03 11:49:03;;;;;;;3.80;0.85;;;22.90;93.80;;;;;;5019038;28;20050;-76
2023/08/03 11:51:36;;;;;;;4.40;1.08;;;23.00;94.10;;;;;;5013880;28;20042;-76
2023/08/03 11:54:05;;;;;;;;;;;23.00;95.20;;;;;;5006530;28;20057;-79
2023/08/03 11:56:34;;;;;;;6.30;1.10;;;23.00;94.10;;;;;;5011498;28;19951;-78
2023/08/03 11:59:01;;;;;;;5.88;1.20;;;23.00;94.60;;;;;;5007595;28;20030;-78
2023/08/03 12:01:27;;;;;;;4.70;0.90;;;23.10;94.30;;;;;;4994919;28;20110;-78
2023/08/03 12:04:10;;;;;;;6.03;1.20;;;23.10;95.40;;;;;;4996413;28;20114;-78
2023/08/03 12:06:42;;;;;;;6.18;1.17;;;23.20;95.50;;;;;;5012988;28;20058;-77
2023/08/03 12:09:07;;;;;;;4.18;1.02;;;23.20;96.10;;;;;;5008648;28;20046;-78
2023/08/03 12:11:33;;;;;;;4.45;1.05;;;23.30;95.00;;;;;;5009501;28;20046;-78
2023/08/03 12:13:59;;;;;;;4.72;0.90;;;23.30;94.80;;;;;;5007867;28;20103;-77
2023/08/03 12:16:24;;;;;;;4.05;0.80;;;23.30;94.70;;;;;;5009260;28;20105;-78
2023/08/03 12:18:50;;;;;;;3.90;0.85;;;23.40;95.70;;;;;;5010681;28;20041;-77
2023/08/03 12:21:15;;;;;;;5.30;1.02;;;23.40;95.30;;;;;;4992492;28;20142;-78
2023/08/03 12:23:41;;;;;;;7.07;0.85;;;23.40;95.40;;;;;;5007279;28;20121;-78
2023/08/03 12:26:07;;;;;;;3.53;0.70;;;23.50;94.50;;;;;;5009383;28;20085;-78
2023/08/03 12:28:33;;;;;;;3.67;0.73;;;23.50;94.50;;;;;;5003916;28;20087;-78
2023/08/03 12:31:02;;;;;;;4.82;0.98;;;23.50;95.00;;;;;;5005036;28;20057;-78
2023/08/03 12:33:28;;;;;;;3.67;0.90;;;23.40;94.50;;;;;;5007533;28;20052;-76
2023/08/03 12:35:53;;;;;;;4.05;0.98;;;23.40;95.00;;;;;;5011035;28;20404;-78
2023/08/03 12:38:19;;;;;;;4.70;0.88;;;23.40;94.30;;;;;;5013699;28;20499;-78
2023/08/03 12:40:44;;;;;;;3.53;0.90;;;23.50;95.60;;;;;;4999704;28;20037;-78
2023/08/03 12:43:10;;;;;;;7.18;1.10;;;23.60;95.10;;;;;;5013342;28;20407;-78
2023/08/03 12:45:36;;;;;;;8.90;1.30;;;23.50;94.90;;;;;;4999570;28;20073;-78
2023/08/03 12:48:02;;;;;;;6.72;1.15;;;23.50;94.40;;;;;;5013029;28;20084;-78